createdAt,value
2018-05-08T00:00:29.288Z,2.90
2018-05-08T00:02:57.692Z,2.33
2018-05-08T00:05:26.108Z,2.50
2018-05-08T00:07:55.407Z,2.45
2018-05-08T00:10:24.602Z,3.13
2018-05-08T00:12:53.741Z,2.47
2018-05-08T00:15:23.265Z,2.60
2018-05-08T00:17:51.642Z,2.80
2018-05-08T00:20:20.008Z,2.80
2018-05-08T00:22:48.334Z,2.80
2018-05-08T00:25:17.554Z,2.70
2018-05-08T00:27:45.890Z,2.67
2018-05-08T00:30:14.244Z,2.50
2018-05-08T00:32:42.672Z,2.90
2018-05-08T00:35:11.769Z,2.50
2018-05-08T00:37:40.934Z,3.12
2018-05-08T00:40:09.353Z,3.60
2018-05-08T00:42:38.887Z,3.83
2018-05-08T00:45:07.383Z,4.47
2018-05-08T00:47:36.915Z,5.07
2018-05-08T00:50:05.275Z,5.27
2018-05-08T00:52:33.809Z,4.07
2018-05-08T00:55:06.952Z,4.73
2018-05-08T00:57:35.400Z,4.60
2018-05-08T01:00:03.763Z,4.13
2018-05-08T01:02:32.090Z,3.83
2018-05-08T01:05:00.513Z,4.53
2018-05-08T01:07:29.643Z,3.83
2018-05-08T01:09:57.954Z,3.60
2018-05-08T01:12:26.278Z,3.80
2018-05-08T01:14:54.533Z,3.10
2018-05-08T01:17:23.614Z,3.90
2018-05-08T01:19:52.757Z,3.83
2018-05-08T01:22:21.733Z,3.58
2018-05-08T01:24:50.009Z,3.53
2018-05-08T01:27:18.317Z,2.93
2018-05-08T01:29:46.702Z,3.30
2018-05-08T01:32:15.019Z,3.20
2018-05-08T01:34:44.128Z,3.20
2018-05-08T01:37:13.199Z,2.83
2018-05-08T01:39:41.502Z,3.05
2018-05-08T01:42:10.660Z,3.00
2018-05-08T01:44:38.960Z,2.90
2018-05-08T01:47:08.013Z,3.03
2018-05-08T01:49:36.333Z,3.15
2018-05-08T01:52:04.622Z,3.00
2018-05-08T01:54:34.802Z,3.37
2018-05-08T01:57:03.105Z,3.50
2018-05-08T01:59:32.353Z,3.60
2018-05-08T02:02:00.675Z,3.47
2018-05-08T02:04:29.029Z,2.97
2018-05-08T02:06:57.566Z,3.33
2018-05-08T02:09:27.688Z,3.30
2018-05-08T02:11:56.222Z,3.60
2018-05-08T02:14:24.626Z,3.10
2018-05-08T02:16:53.720Z,3.40
2018-05-08T02:19:22.857Z,3.55
2018-05-08T02:21:51.163Z,3.20
2018-05-08T02:24:19.543Z,3.83
2018-05-08T02:26:48.327Z,3.30
2018-05-08T02:29:16.795Z,3.73
2018-05-08T02:31:45.138Z,3.47
2018-05-08T02:34:13.524Z,3.23
2018-05-08T02:36:41.824Z,3.30
2018-05-08T02:39:10.155Z,3.43
2018-05-08T02:41:39.245Z,3.87
2018-05-08T02:44:08.363Z,3.70
2018-05-08T02:46:36.664Z,3.30
2018-05-08T02:49:04.990Z,3.60
2018-05-08T02:51:33.306Z,4.43
2018-05-08T02:54:01.610Z,3.80
2018-05-08T02:56:31.136Z,3.70
2018-05-08T02:59:02.039Z,3.30
2018-05-08T03:01:30.323Z,3.67
2018-05-08T03:03:58.613Z,3.37
2018-05-08T03:06:26.941Z,3.23
2018-05-08T03:08:55.331Z,3.97
2018-05-08T03:11:23.844Z,4.00
2018-05-08T03:13:52.129Z,4.12
2018-05-08T03:16:20.503Z,3.77
2018-05-08T03:18:48.768Z,4.10
2018-05-08T03:21:17.138Z,4.13
2018-05-08T03:23:45.463Z,3.50
2018-05-08T03:26:13.758Z,3.73
2018-05-08T03:28:42.812Z,3.62
2018-05-08T03:31:11.164Z,3.93
2018-05-08T03:33:39.464Z,4.00
2018-05-08T03:36:08.035Z,4.53
2018-05-08T03:38:37.395Z,6.20
2018-05-08T03:41:05.733Z,6.97
2018-05-08T03:43:34.214Z,6.10
2018-05-08T03:46:02.547Z,5.67
2018-05-08T03:48:30.830Z,5.33
2018-05-08T03:50:59.165Z,4.73
2018-05-08T03:53:27.503Z,5.47
2018-05-08T03:55:55.765Z,5.37
2018-05-08T03:58:24.109Z,4.00
2018-05-08T04:01:11.273Z,4.97
2018-05-08T04:03:57.568Z,4.90
2018-05-08T04:09:38.984Z,6.30
2018-05-08T04:12:07.436Z,4.83
2018-05-08T04:14:35.850Z,4.40
2018-05-08T04:17:04.176Z,5.37
2018-05-08T04:19:32.685Z,5.23
2018-05-08T04:22:01.158Z,7.50
2018-05-08T04:24:29.679Z,5.60
2018-05-08T04:26:58.204Z,4.37
2018-05-08T04:29:26.483Z,4.60
2018-05-08T04:31:54.844Z,4.27
2018-05-08T04:34:23.984Z,4.97
2018-05-08T04:36:52.361Z,4.35
2018-05-08T04:39:20.780Z,4.37
2018-05-08T04:41:49.175Z,5.40
2018-05-08T04:44:18.368Z,5.27
2018-05-08T04:46:46.655Z,4.47
2018-05-08T04:49:15.728Z,4.70
2018-05-08T04:51:44.220Z,4.60
2018-05-08T04:54:13.686Z,5.07
2018-05-08T04:56:42.004Z,4.63
2018-05-08T04:59:10.312Z,4.80
2018-05-08T05:01:38.668Z,4.82
2018-05-08T05:04:07.805Z,4.80
2018-05-08T05:06:36.370Z,5.32
2018-05-08T05:09:04.904Z,5.33
2018-05-08T05:11:34.209Z,4.43
2018-05-08T05:14:02.535Z,4.53
2018-05-08T05:16:30.839Z,5.40
2018-05-08T05:18:59.165Z,5.93
2018-05-08T05:21:28.345Z,5.13
2018-05-08T05:23:56.615Z,4.40
2018-05-08T05:26:24.918Z,5.13
2018-05-08T05:28:54.038Z,4.50
2018-05-08T05:31:22.331Z,4.23
2018-05-08T05:33:50.637Z,4.90
2018-05-08T05:36:18.944Z,4.50
2018-05-08T05:38:48.177Z,5.43
2018-05-08T05:41:16.624Z,5.72
2018-05-08T05:43:45.685Z,4.77
2018-05-08T05:46:14.138Z,4.63
2018-05-08T05:48:42.705Z,5.78
2018-05-08T05:51:12.035Z,4.90
2018-05-08T05:53:40.346Z,4.30
2018-05-08T05:56:08.656Z,4.57
2018-05-08T05:58:37.045Z,4.53
2018-05-08T06:01:05.412Z,5.17
2018-05-08T06:03:33.780Z,4.00
2018-05-08T06:06:02.427Z,4.55
2018-05-08T06:08:30.747Z,4.37
2018-05-08T06:10:59.037Z,5.20
2018-05-08T06:13:27.366Z,4.67
2018-05-08T06:15:55.716Z,4.83
2018-05-08T06:18:24.015Z,5.10
2018-05-08T06:20:52.335Z,4.50
2018-05-08T06:23:20.729Z,4.97
2018-05-08T06:25:49.032Z,4.47
2018-05-08T06:28:17.549Z,4.62
2018-05-08T06:30:46.039Z,4.40
2018-05-08T06:33:15.130Z,4.53
2018-05-08T06:35:44.420Z,4.65
2018-05-08T06:38:13.538Z,4.32
2018-05-08T06:40:41.863Z,4.20
2018-05-08T06:43:10.157Z,4.30
2018-05-08T06:45:38.502Z,5.17
2018-05-08T06:48:06.851Z,4.67
2018-05-08T06:50:35.175Z,4.07
2018-05-08T06:53:03.532Z,4.80
2018-05-08T06:55:31.866Z,4.27
2018-05-08T06:58:00.956Z,4.10
2018-05-08T07:00:30.098Z,3.80
2018-05-08T07:02:58.390Z,3.80
2018-05-08T07:05:26.827Z,21.50
2018-05-08T07:07:55.186Z,15.00
2018-05-08T07:10:24.312Z,7.80
2018-05-08T07:12:53.847Z,4.57
2018-05-08T07:15:22.181Z,4.07
2018-05-08T07:17:50.507Z,4.47
2018-05-08T07:20:18.820Z,5.17
2018-05-08T07:22:47.916Z,4.10
2018-05-08T07:25:17.132Z,4.37
2018-05-08T07:27:46.205Z,3.63
2018-05-08T07:30:14.517Z,3.87
2018-05-08T07:32:42.841Z,3.70
2018-05-08T07:35:11.135Z,3.20
2018-05-08T07:37:39.457Z,13.27
2018-05-08T07:40:07.776Z,10.20
2018-05-08T07:42:36.868Z,3.53
2018-05-08T07:45:05.142Z,2.77
2018-05-08T07:47:33.542Z,2.60
2018-05-08T07:50:02.637Z,3.43
2018-05-08T07:52:30.991Z,3.33
2018-05-08T07:54:59.304Z,3.22
2018-05-08T07:57:28.415Z,3.57
2018-05-08T07:59:57.478Z,3.23
2018-05-08T08:02:25.795Z,3.17
2018-05-08T08:04:54.066Z,3.53
2018-05-08T08:07:22.495Z,3.17
2018-05-08T08:09:50.809Z,3.20
2018-05-08T08:12:20.009Z,3.40
2018-05-08T08:14:48.386Z,2.93
2018-05-08T08:17:17.550Z,4.90
2018-05-08T08:19:45.870Z,4.50
2018-05-08T08:22:14.826Z,3.10
2018-05-08T08:24:43.227Z,2.78
2018-05-08T08:27:11.499Z,3.08
2018-05-08T08:29:40.646Z,3.20
2018-05-08T08:32:08.964Z,3.12
2018-05-08T08:34:38.147Z,3.22
2018-05-08T08:37:06.517Z,3.13
2018-05-08T08:39:35.118Z,3.50
2018-05-08T08:42:04.545Z,3.67
2018-05-08T08:44:35.469Z,2.60
2018-05-08T08:47:03.773Z,3.10
2018-05-08T08:49:32.320Z,2.73
2018-05-08T08:52:01.422Z,2.70
2018-05-08T08:54:30.613Z,2.47
2018-05-08T08:56:58.946Z,2.37
2018-05-08T08:59:27.368Z,3.07
2018-05-08T09:01:55.789Z,2.70
2018-05-08T09:04:24.284Z,3.70
2018-05-08T09:06:52.733Z,4.20
2018-05-08T09:09:21.924Z,2.50
2018-05-08T09:11:51.031Z,2.17
2018-05-08T09:14:19.444Z,2.60
2018-05-08T09:16:48.761Z,2.60
2018-05-08T09:19:17.049Z,2.37
2018-05-08T09:21:46.178Z,2.60
2018-05-08T09:24:15.348Z,2.70
2018-05-08T09:26:43.649Z,2.63
2018-05-08T09:29:12.883Z,3.33
2018-05-08T09:31:41.297Z,2.58
2018-05-08T09:34:09.638Z,2.60
2018-05-08T09:36:37.947Z,2.90
2018-05-08T09:39:07.207Z,2.92
2018-05-08T09:41:35.473Z,2.78
2018-05-08T09:44:03.747Z,3.05
2018-05-08T09:46:32.102Z,2.47
2018-05-08T09:49:00.669Z,2.43
2018-05-08T09:51:28.967Z,2.07
2018-05-08T09:53:58.204Z,2.50
2018-05-08T09:56:26.501Z,2.37
2018-05-08T09:58:54.852Z,2.40
2018-05-08T10:01:23.143Z,2.30
2018-05-08T10:03:51.557Z,2.13
2018-05-08T10:06:19.877Z,2.50
2018-05-08T10:08:48.222Z,2.75
2018-05-08T10:11:17.459Z,2.13
2018-05-08T10:13:45.877Z,2.33
2018-05-08T10:16:14.283Z,2.15
2018-05-08T10:18:44.548Z,2.57
2018-05-08T10:21:12.834Z,2.20
2018-05-08T10:23:41.129Z,2.07
2018-05-08T10:26:09.556Z,2.70
2018-05-08T10:28:38.654Z,2.47
2018-05-08T10:31:07.027Z,2.50
2018-05-08T10:33:35.577Z,2.40
2018-05-08T10:36:04.142Z,2.50
2018-05-08T10:38:32.574Z,2.20
2018-05-08T10:41:01.647Z,1.80
2018-05-08T10:43:30.013Z,1.70
2018-05-08T10:45:58.347Z,2.13
2018-05-08T10:48:26.640Z,2.53
2018-05-08T10:50:55.097Z,2.27
2018-05-08T10:53:23.719Z,1.97
2018-05-08T10:55:52.042Z,1.77
2018-05-08T10:58:20.528Z,2.00
2018-05-08T11:00:48.823Z,2.20
2018-05-08T11:03:17.205Z,2.10
2018-05-08T11:05:45.789Z,1.90
2018-05-08T11:08:14.122Z,2.33
2018-05-08T11:10:43.314Z,1.98
2018-05-08T11:13:11.757Z,1.90
2018-05-08T11:15:40.103Z,2.00
2018-05-08T11:18:09.584Z,2.03
2018-05-08T11:20:39.799Z,1.90
2018-05-08T11:23:08.138Z,1.80
2018-05-08T11:25:36.492Z,1.97
2018-05-08T11:28:04.998Z,1.87
2018-05-08T11:30:33.344Z,1.80
2018-05-08T11:33:02.641Z,1.98
2018-05-08T11:35:31.037Z,1.57
2018-05-08T11:37:59.477Z,2.35
2018-05-08T11:40:27.883Z,1.63
2018-05-08T11:42:57.103Z,1.92
2018-05-08T11:45:25.633Z,1.83
2018-05-08T11:47:53.940Z,1.83
2018-05-08T11:50:23.355Z,1.80
2018-05-08T11:52:51.689Z,2.00
2018-05-08T11:55:20.304Z,1.90
2018-05-08T11:57:48.818Z,1.47
2018-05-08T12:00:17.259Z,2.30
2018-05-08T12:02:46.318Z,2.70
2018-05-08T12:05:14.714Z,10.70
2018-05-08T12:07:43.833Z,3.30
2018-05-08T12:10:12.293Z,2.08
2018-05-08T12:12:41.415Z,3.10
2018-05-08T12:15:09.769Z,2.58
2018-05-08T12:17:38.103Z,2.05
2018-05-08T12:20:06.472Z,1.60
2018-05-08T12:22:35.674Z,1.67
2018-05-08T12:25:03.969Z,1.60
2018-05-08T12:27:32.337Z,1.60
2018-05-08T12:30:00.746Z,1.70
2018-05-08T12:32:29.974Z,1.90
2018-05-08T12:34:58.502Z,1.90
2018-05-08T12:37:26.873Z,1.90
2018-05-08T12:39:55.189Z,1.50
2018-05-08T12:42:24.348Z,1.80
2018-05-08T12:44:52.784Z,1.70
2018-05-08T12:47:21.090Z,1.73
2018-05-08T12:49:49.457Z,2.00
2018-05-08T12:52:19.010Z,1.62
2018-05-08T12:54:49.027Z,1.60
2018-05-08T12:57:17.453Z,1.50
2018-05-08T12:59:45.852Z,1.80
2018-05-08T13:02:14.562Z,1.77
2018-05-08T13:04:43.095Z,1.60
2018-05-08T13:07:11.524Z,1.70
2018-05-08T13:09:39.815Z,1.70
2018-05-08T13:12:08.189Z,1.45
2018-05-08T13:14:36.583Z,1.60
2018-05-08T13:17:05.720Z,10.32
2018-05-08T13:19:34.084Z,2.00
2018-05-08T13:22:02.377Z,1.77
2018-05-08T13:24:30.887Z,1.70
2018-05-08T13:27:00.269Z,1.70
2018-05-08T13:29:28.617Z,1.80
2018-05-08T13:31:56.991Z,1.70
2018-05-08T13:34:26.092Z,1.85
2018-05-08T13:36:54.454Z,1.70
2018-05-08T13:39:23.515Z,1.63
2018-05-08T13:41:51.909Z,1.50
2018-05-08T13:44:20.209Z,1.70
2018-05-08T13:46:49.384Z,1.48
2018-05-08T13:49:18.545Z,1.90
2018-05-08T13:51:46.923Z,1.83
2018-05-08T13:54:16.384Z,1.95
2018-05-08T13:56:46.703Z,1.80
2018-05-08T13:59:15.833Z,1.30
2018-05-08T14:01:44.275Z,1.77
2018-05-08T14:04:13.614Z,2.20
2018-05-08T14:06:42.082Z,1.70
2018-05-08T14:09:10.451Z,1.57
2018-05-08T14:11:39.566Z,1.80
2018-05-08T14:14:08.023Z,1.70
2018-05-08T14:16:37.111Z,1.60
2018-05-08T14:19:06.223Z,1.52
2018-05-08T14:21:34.528Z,1.77
2018-05-08T14:24:02.829Z,1.37
2018-05-08T14:26:31.208Z,1.33
2018-05-08T14:29:00.325Z,1.43
2018-05-08T14:31:28.804Z,1.73
2018-05-08T14:33:57.910Z,1.50
2018-05-08T14:36:27.034Z,1.53
2018-05-08T14:38:55.618Z,1.30
2018-05-08T14:41:24.249Z,1.33
2018-05-08T14:43:52.609Z,1.50
2018-05-08T14:46:20.946Z,1.47
2018-05-08T14:48:49.279Z,1.45
2018-05-08T14:51:17.679Z,1.50
2018-05-08T14:53:46.860Z,1.20
2018-05-08T14:56:16.620Z,1.40
2018-05-08T14:58:45.003Z,1.40
2018-05-08T15:01:13.585Z,1.30
2018-05-08T15:03:41.933Z,1.63
2018-05-08T15:06:10.335Z,1.70
2018-05-08T15:08:38.703Z,1.80
2018-05-08T15:11:08.024Z,1.50
2018-05-08T15:13:36.475Z,2.58
2018-05-08T15:16:05.629Z,1.62
2018-05-08T15:18:33.959Z,1.60
2018-05-08T15:21:03.071Z,1.90
2018-05-08T15:23:31.396Z,1.85
2018-05-08T15:25:59.740Z,1.40
2018-05-08T15:28:28.086Z,1.40
2018-05-08T15:30:57.380Z,1.80
2018-05-08T15:33:27.647Z,1.50
2018-05-08T15:35:56.116Z,2.10
2018-05-08T15:38:25.309Z,1.87
2018-05-08T15:40:53.713Z,1.60
2018-05-08T15:43:22.130Z,1.60
2018-05-08T15:45:51.326Z,1.50
2018-05-08T15:48:20.454Z,4.68
2018-05-08T15:50:48.808Z,1.97
2018-05-08T15:53:17.912Z,2.00
2018-05-08T15:55:46.355Z,1.80
2018-05-08T15:58:14.698Z,1.80
2018-05-08T16:00:43.219Z,1.70
2018-05-08T16:03:11.888Z,1.60
2018-05-08T16:05:42.084Z,1.90
2018-05-08T16:08:10.411Z,2.07
2018-05-08T16:10:39.644Z,1.90
2018-05-08T16:13:08.117Z,1.80
2018-05-08T16:15:36.464Z,2.20
2018-05-08T16:18:05.613Z,1.60
2018-05-08T16:20:34.002Z,6.63
2018-05-08T16:23:02.410Z,2.07
2018-05-08T16:25:31.855Z,1.53
2018-05-08T16:28:00.273Z,2.17
2018-05-08T16:30:28.821Z,1.50
2018-05-08T16:32:57.130Z,1.70
2018-05-08T16:35:25.464Z,1.80
2018-05-08T16:37:54.915Z,1.77
2018-05-08T16:40:23.274Z,1.47
2018-05-08T16:42:51.609Z,1.60
2018-05-08T16:45:19.949Z,1.73
2018-05-08T16:47:49.035Z,1.90
2018-05-08T16:50:17.920Z,2.07
2018-05-08T16:52:46.522Z,1.70
2018-05-08T16:55:15.914Z,1.80
2018-05-08T16:57:44.989Z,1.80
2018-05-08T17:00:13.328Z,2.17
2018-05-08T17:02:41.810Z,3.60
2018-05-08T17:05:10.379Z,6.43
2018-05-08T17:07:38.849Z,7.10
2018-05-08T17:10:07.334Z,5.37
2018-05-08T17:12:35.680Z,3.33
2018-05-08T17:15:04.792Z,1.87
2018-05-08T17:17:33.109Z,3.65
2018-05-08T17:20:01.696Z,9.00
2018-05-08T17:22:30.333Z,3.33
2018-05-08T17:24:59.470Z,2.30
2018-05-08T17:27:28.723Z,1.93
2018-05-08T17:29:58.161Z,2.47
2018-05-08T17:32:26.541Z,2.00
2018-05-08T17:34:55.095Z,1.90
2018-05-08T17:37:23.441Z,1.70
2018-05-08T17:39:52.841Z,1.62
2018-05-08T17:42:21.332Z,1.90
2018-05-08T17:44:50.552Z,2.13
2018-05-08T17:47:18.903Z,2.43
2018-05-08T17:49:47.291Z,2.23
2018-05-08T17:52:16.625Z,2.25
2018-05-08T17:54:45.083Z,2.53
2018-05-08T17:57:13.581Z,2.13
2018-05-08T17:59:41.961Z,2.07
2018-05-08T18:02:10.401Z,2.03
2018-05-08T18:04:39.636Z,2.17
2018-05-08T18:07:08.115Z,2.07
2018-05-08T18:09:36.898Z,2.28
2018-05-08T18:12:05.235Z,2.20
2018-05-08T18:14:34.379Z,1.98
2018-05-08T18:17:02.693Z,2.23
2018-05-08T18:19:31.225Z,2.40
2018-05-08T18:21:59.604Z,2.03
2018-05-08T18:24:28.227Z,2.03
2018-05-08T18:26:56.816Z,2.00
2018-05-08T18:29:25.217Z,2.40
2018-05-08T18:31:53.651Z,2.07
2018-05-08T18:34:22.028Z,2.50
2018-05-08T18:36:50.502Z,2.40
2018-05-08T18:39:18.829Z,2.97
2018-05-08T18:41:47.170Z,2.55
2018-05-08T18:44:15.520Z,3.53
2018-05-08T18:46:43.834Z,7.30
2018-05-08T18:49:12.209Z,6.90
2018-05-08T18:51:40.510Z,4.50
2018-05-08T18:54:08.883Z,4.37
2018-05-08T18:56:37.351Z,3.93
2018-05-08T18:59:05.701Z,4.00
2018-05-08T19:01:34.032Z,3.57
2018-05-08T19:04:02.409Z,2.70
2018-05-08T19:06:31.580Z,2.23
2018-05-08T19:09:00.021Z,2.17
2018-05-08T19:11:34.009Z,2.60
2018-05-08T19:14:03.163Z,2.00
2018-05-08T19:16:31.541Z,2.05
2018-05-08T19:19:05.514Z,1.87
2018-05-08T19:21:33.894Z,2.00
2018-05-08T19:24:07.882Z,2.13
2018-05-08T19:26:36.253Z,2.20
2018-05-08T19:29:10.145Z,2.20
2018-05-08T19:31:38.609Z,2.37
2018-05-08T19:34:07.040Z,2.47
2018-05-08T19:36:41.080Z,2.33
2018-05-08T19:39:09.823Z,2.70
2018-05-08T19:41:38.176Z,2.70
2018-05-08T19:44:06.571Z,3.17
2018-05-08T19:46:35.806Z,3.03
2018-05-08T19:49:04.727Z,3.00
2018-05-08T19:51:33.147Z,2.60
2018-05-08T19:54:02.327Z,2.40
2018-05-08T19:56:30.852Z,2.57
2018-05-08T19:58:59.230Z,9.83
2018-05-08T20:01:27.835Z,18.87
2018-05-08T20:03:57.037Z,7.50
2018-05-08T20:06:25.444Z,4.63
2018-05-08T20:08:53.971Z,3.83
2018-05-08T20:11:22.349Z,3.30
2018-05-08T20:13:50.666Z,3.65
2018-05-08T20:16:19.235Z,3.72
2018-05-08T20:18:47.717Z,4.30
2018-05-08T20:21:17.241Z,3.17
2018-05-08T20:23:45.612Z,6.43
2018-05-08T20:26:14.101Z,5.33
2018-05-08T20:28:42.536Z,4.80
2018-05-08T20:31:10.924Z,4.83
2018-05-08T20:33:39.514Z,4.15
2018-05-08T20:36:07.949Z,3.40
2018-05-08T20:38:36.380Z,5.27
2018-05-08T20:41:04.754Z,4.55
2018-05-08T20:43:33.085Z,3.95
2018-05-08T20:46:02.273Z,3.40
2018-05-08T20:48:30.780Z,4.00
2018-05-08T20:50:59.623Z,4.28
2018-05-08T20:53:27.986Z,3.77
2018-05-08T20:55:56.660Z,3.73
2018-05-08T20:58:25.003Z,3.73
2018-05-08T21:00:54.174Z,3.50
2018-05-08T21:03:22.582Z,3.60
2018-05-08T21:05:50.867Z,3.65
2018-05-08T21:08:19.255Z,3.42
2018-05-08T21:10:47.736Z,3.63
2018-05-08T21:13:16.116Z,3.72
2018-05-08T21:15:44.438Z,3.13
2018-05-08T21:18:12.903Z,3.43
2018-05-08T21:20:42.615Z,3.53
2018-05-08T21:23:10.917Z,3.80
2018-05-08T21:25:40.035Z,4.57
2018-05-08T21:28:13.823Z,4.37
2018-05-08T21:30:48.453Z,3.73
2018-05-08T21:33:18.288Z,3.50
2018-05-08T21:35:48.726Z,4.27
2018-05-08T21:38:17.041Z,4.60
2018-05-08T21:40:45.802Z,4.00
2018-05-08T21:43:14.185Z,3.67
2018-05-08T21:45:42.506Z,3.97
2018-05-08T21:48:11.614Z,6.50
2018-05-08T21:50:40.760Z,17.80
2018-05-08T21:53:09.212Z,7.05
2018-05-08T21:55:37.574Z,4.78
2018-05-08T21:58:06.647Z,3.93
2018-05-08T22:00:34.946Z,3.30
2018-05-08T22:03:04.020Z,3.10
2018-05-08T22:05:32.309Z,3.50
2018-05-08T22:08:01.642Z,3.40
2018-05-08T22:10:30.327Z,3.37
2018-05-08T22:12:58.892Z,3.07
2018-05-08T22:15:27.306Z,3.00
2018-05-08T22:17:55.632Z,3.00
2018-05-08T22:20:23.961Z,3.25
2018-05-08T22:22:52.246Z,3.17
2018-05-08T22:25:20.693Z,3.37
2018-05-08T22:27:48.955Z,3.17
2018-05-08T22:30:18.154Z,3.47
2018-05-08T22:32:46.556Z,3.10
2018-05-08T22:35:15.064Z,3.20
2018-05-08T22:37:43.420Z,3.47
2018-05-08T22:40:11.949Z,3.47
2018-05-08T22:42:40.426Z,3.20
2018-05-08T22:45:09.006Z,3.63
2018-05-08T22:47:37.395Z,2.80
2018-05-08T22:50:05.669Z,3.78
2018-05-08T22:52:34.085Z,2.70
2018-05-08T22:55:02.326Z,3.15
2018-05-08T22:57:30.626Z,3.20
2018-05-08T22:59:59.768Z,2.95
2018-05-08T23:02:28.060Z,3.33
2018-05-08T23:04:58.020Z,2.97
2018-05-08T23:07:28.334Z,3.20
2018-05-08T23:09:57.444Z,3.00
2018-05-08T23:12:26.658Z,3.07
2018-05-08T23:14:55.030Z,2.50
2018-05-08T23:17:23.321Z,2.80
2018-05-08T23:19:51.639Z,3.20
2018-05-08T23:22:20.772Z,3.20
2018-05-08T23:24:49.046Z,2.57
2018-05-08T23:27:18.151Z,2.90
2018-05-08T23:29:46.465Z,2.80
2018-05-08T23:32:14.825Z,3.35
2018-05-08T23:34:43.254Z,2.63
2018-05-08T23:37:11.841Z,2.90
2018-05-08T23:39:42.057Z,2.63
2018-05-08T23:42:10.597Z,2.73
2018-05-08T23:44:39.141Z,2.93
2018-05-08T23:47:08.224Z,2.80
2018-05-08T23:49:36.716Z,2.67
2018-05-08T23:52:05.785Z,2.50
2018-05-08T23:54:34.432Z,2.78
2018-05-08T23:57:02.878Z,2.40
2018-05-08T23:59:32.106Z,2.78
